createdAt,value
2022-08-24T00:00:21.824Z,99783.28
2022-08-24T00:02:24.302Z,99792.03
2022-08-24T00:04:26.083Z,99797.59
2022-08-24T00:06:28.696Z,99798.53
2022-08-24T00:08:31.241Z,99799.13
2022-08-24T00:10:32.879Z,99802.34
2022-08-24T00:12:34.514Z,99804.16
2022-08-24T00:14:36.413Z,99801.28
2022-08-24T00:16:38.156Z,99799.13
2022-08-24T00:18:39.852Z,99802.72
2022-08-24T00:20:45.072Z,99805.09
2022-08-24T00:22:46.985Z,99799.44
2022-08-24T00:24:48.645Z,99799.44
2022-08-24T00:26:50.427Z,99793.00
2022-08-24T00:28:52.546Z,99799.84
2022-08-24T00:30:54.178Z,99794.63
2022-08-24T00:32:56.366Z,99785.25
2022-08-24T00:34:59.531Z,99798.63
2022-08-24T00:37:01.195Z,99804.97
2022-08-24T00:39:03.530Z,99798.50
2022-08-24T00:41:05.721Z,99803.03
2022-08-24T00:43:09.559Z,99799.84
2022-08-24T00:45:13.622Z,99800.47
2022-08-24T00:47:31.682Z,99795.28
2022-08-24T00:49:54.565Z,99795.47
2022-08-24T00:52:18.036Z,99805.66
2022-08-24T00:54:19.630Z,99808.38
2022-08-24T00:56:28.613Z,99802.75
2022-08-24T00:58:36.523Z,99806.00
2022-08-24T01:00:48.516Z,99801.56
2022-08-24T01:02:58.789Z,99796.69
2022-08-24T01:05:07.864Z,99801.72
2022-08-24T01:07:09.570Z,99788.91
2022-08-24T01:09:11.201Z,99805.38
2022-08-24T01:11:18.068Z,99812.31
2022-08-24T01:13:20.659Z,99807.50
2022-08-24T01:15:22.833Z,99815.38
2022-08-24T01:17:44.214Z,99819.09
2022-08-24T01:19:50.469Z,99817.34
2022-08-24T01:22:07.179Z,99800.84
2022-08-24T01:24:12.790Z,99807.63
2022-08-24T01:26:19.777Z,99801.47
2022-08-24T01:28:27.191Z,99828.38
2022-08-24T01:30:35.966Z,99804.63
2022-08-24T01:32:39.385Z,99814.41
2022-08-24T01:34:41.162Z,99806.63
2022-08-24T01:36:46.198Z,99815.53
2022-08-24T01:38:49.034Z,99824.25
2022-08-24T01:40:57.700Z,99822.84
2022-08-24T01:42:59.303Z,99821.31
2022-08-24T01:45:01.582Z,99825.78
2022-08-24T01:47:06.669Z,99816.41
2022-08-24T01:49:10.409Z,99833.47
2022-08-24T01:51:12.080Z,99826.53
2022-08-24T01:53:13.907Z,99803.66
2022-08-24T01:55:19.171Z,99810.41
2022-08-24T01:57:26.759Z,99800.50
2022-08-24T01:59:28.812Z,99807.81
2022-08-24T02:01:34.618Z,99821.66
2022-08-24T02:03:36.232Z,99821.16
2022-08-24T02:05:38.542Z,99830.19
2022-08-24T02:07:40.604Z,99835.81
2022-08-24T02:09:42.261Z,99834.44
2022-08-24T02:11:44.117Z,99835.59
2022-08-24T02:13:46.098Z,99822.09
2022-08-24T02:15:47.955Z,99813.50
2022-08-24T02:17:49.958Z,99804.88
2022-08-24T02:19:51.537Z,99796.47
2022-08-24T02:21:53.208Z,99800.88
2022-08-24T02:23:54.872Z,99816.91
2022-08-24T02:25:56.628Z,99814.19
2022-08-24T02:28:00.070Z,99812.69
2022-08-24T02:30:01.711Z,99825.88
2022-08-24T02:32:04.687Z,99818.13
2022-08-24T02:34:06.435Z,99813.88
2022-08-24T02:36:25.074Z,99823.06
2022-08-24T02:38:28.332Z,99823.41
2022-08-24T02:40:30.014Z,99830.66
2022-08-24T02:42:31.988Z,99844.97
2022-08-24T02:44:33.877Z,99836.25
2022-08-24T02:46:35.556Z,99831.09
2022-08-24T02:48:37.266Z,99841.63
2022-08-24T02:50:45.347Z,99841.38
2022-08-24T02:52:47.143Z,99842.97
2022-08-24T02:54:48.883Z,99848.81
2022-08-24T02:56:50.741Z,99853.06
2022-08-24T02:58:53.130Z,99850.53
2022-08-24T03:00:56.032Z,99853.31
2022-08-24T03:02:58.005Z,99841.50
2022-08-24T03:04:59.642Z,99831.41
2022-08-24T03:07:01.410Z,99831.13
2022-08-24T03:09:04.339Z,99841.59
2022-08-24T03:11:08.370Z,99843.50
2022-08-24T03:13:10.114Z,99857.03
2022-08-24T03:15:12.172Z,99846.81
2022-08-24T03:17:13.875Z,99853.53
2022-08-24T03:19:15.722Z,99861.56
2022-08-24T03:21:18.817Z,99848.25
2022-08-24T03:23:20.915Z,99852.78
2022-08-24T03:25:24.816Z,99844.69
2022-08-24T03:27:26.560Z,99831.53
2022-08-24T03:29:28.266Z,99820.97
2022-08-24T03:31:35.571Z,99801.25
2022-08-24T03:33:37.185Z,99820.91
2022-08-24T03:35:39.776Z,99825.19
2022-08-24T03:37:41.688Z,99824.09
2022-08-24T03:39:43.353Z,99810.84
2022-08-24T03:41:45.109Z,99829.41
2022-08-24T03:43:46.923Z,99820.34
2022-08-24T03:45:48.725Z,99826.22
2022-08-24T03:47:50.837Z,99830.03
2022-08-24T03:49:53.474Z,99836.56
2022-08-24T03:51:55.086Z,99839.38
2022-08-24T03:53:59.693Z,99834.84
2022-08-24T03:56:01.660Z,99848.50
2022-08-24T03:58:08.637Z,99851.97
2022-08-24T04:00:12.368Z,99852.72
2022-08-24T04:02:14.131Z,99854.13
2022-08-24T04:04:16.460Z,99861.44
2022-08-24T04:06:20.724Z,99866.91
2022-08-24T04:08:22.485Z,99868.22
2022-08-24T04:10:24.128Z,99848.56
2022-08-24T04:12:26.603Z,99857.88
2022-08-24T04:14:28.997Z,99858.03
2022-08-24T04:16:31.005Z,99851.94
2022-08-24T04:18:32.831Z,99857.16
2022-08-24T04:20:39.377Z,99849.69
2022-08-24T04:22:41.624Z,99859.75
2022-08-24T04:24:43.635Z,99867.69
2022-08-24T04:26:46.193Z,99854.53
2022-08-24T04:28:48.715Z,99881.97
2022-08-24T04:30:51.460Z,99877.53
2022-08-24T04:32:53.091Z,99863.50
2022-08-24T04:34:54.689Z,99865.84
2022-08-24T04:36:56.250Z,99852.44
2022-08-24T04:38:57.860Z,99851.94
2022-08-24T04:41:00.302Z,99856.06
2022-08-24T04:43:02.253Z,99858.78
2022-08-24T04:45:04.532Z,99871.75
2022-08-24T04:47:08.479Z,99863.97
2022-08-24T04:49:10.120Z,99869.16
2022-08-24T04:51:14.241Z,99856.16
2022-08-24T04:53:16.275Z,99857.38
2022-08-24T04:55:18.674Z,99872.09
2022-08-24T04:57:20.276Z,99876.09
2022-08-24T04:59:21.918Z,99861.50
2022-08-24T05:01:27.172Z,99861.50
2022-08-24T05:03:28.867Z,99875.78
2022-08-24T05:05:30.529Z,99872.00
2022-08-24T05:07:32.104Z,99872.81
2022-08-24T05:09:33.750Z,99888.81
2022-08-24T05:11:37.480Z,99869.88
2022-08-24T05:13:39.085Z,99888.69
2022-08-24T05:15:42.944Z,99887.94
2022-08-24T05:17:51.003Z,99884.16
2022-08-24T05:19:53.430Z,99892.00
2022-08-24T05:21:55.232Z,99883.41
2022-08-24T05:23:56.868Z,99895.28
2022-08-24T05:26:10.613Z,99889.75
2022-08-24T05:28:12.266Z,99892.56
2022-08-24T05:30:14.660Z,99901.91
2022-08-24T05:32:17.894Z,99897.19
2022-08-24T05:34:19.700Z,99899.53
2022-08-24T05:36:25.361Z,99899.53
2022-08-24T05:38:26.927Z,99901.25
2022-08-24T05:40:33.378Z,99894.63
2022-08-24T05:42:36.321Z,99912.78
2022-08-24T05:44:37.971Z,99909.84
2022-08-24T05:46:40.317Z,99909.25
2022-08-24T05:48:42.014Z,99922.53
2022-08-24T05:50:43.587Z,99902.25
2022-08-24T05:52:45.140Z,99903.53
2022-08-24T05:54:52.271Z,99898.53
2022-08-24T05:56:54.962Z,99899.78
2022-08-24T05:58:57.311Z,99900.59
2022-08-24T06:01:00.147Z,99912.28
2022-08-24T06:03:01.865Z,99915.22
2022-08-24T06:05:03.872Z,99913.00
2022-08-24T06:07:09.305Z,99900.19
2022-08-24T06:09:12.036Z,99897.31
2022-08-24T06:11:30.560Z,99886.19
2022-08-24T06:13:33.772Z,99888.50
2022-08-24T06:15:36.165Z,99897.16
2022-08-24T06:17:37.854Z,99886.75
2022-08-24T06:19:39.583Z,99889.69
2022-08-24T06:21:41.545Z,99883.00
2022-08-24T06:23:44.229Z,99890.00
2022-08-24T06:26:04.181Z,99892.50
2022-08-24T06:28:05.771Z,99897.31
2022-08-24T06:30:10.138Z,99902.72
2022-08-24T06:32:11.866Z,99904.38
2022-08-24T06:34:15.751Z,99909.00
2022-08-24T06:36:17.406Z,99908.13
2022-08-24T06:38:24.259Z,99901.69
2022-08-24T06:40:26.385Z,99919.69
2022-08-24T06:42:31.693Z,99925.72
2022-08-24T06:44:34.168Z,99923.13
2022-08-24T06:46:39.600Z,99922.78
2022-08-24T06:48:41.353Z,99940.69
2022-08-24T06:50:43.295Z,99949.38
2022-08-24T06:52:44.956Z,99953.34
2022-08-24T06:54:46.600Z,99947.75
2022-08-24T06:56:48.216Z,99956.03
2022-08-24T06:58:50.390Z,99955.31
2022-08-24T07:00:52.001Z,99941.47
2022-08-24T07:02:54.883Z,99961.53
2022-08-24T07:04:56.537Z,99953.97
2022-08-24T07:06:58.124Z,99962.69
2022-08-24T07:08:59.728Z,99952.81
2022-08-24T07:11:02.717Z,99969.00
2022-08-24T07:13:04.511Z,99974.97
2022-08-24T07:15:11.481Z,99965.41
2022-08-24T07:17:18.889Z,99971.16
2022-08-24T07:19:20.494Z,99980.00
2022-08-24T07:21:22.732Z,99975.75
2022-08-24T07:23:37.907Z,99981.41
2022-08-24T07:25:49.719Z,99976.97
2022-08-24T07:27:52.373Z,99977.25
2022-08-24T07:30:10.270Z,99973.88
2022-08-24T07:32:15.893Z,99982.28
2022-08-24T07:34:17.496Z,99983.97
2022-08-24T07:36:22.281Z,99979.88
2022-08-24T07:38:24.413Z,99988.25
2022-08-24T07:40:28.678Z,99977.25
2022-08-24T07:42:32.096Z,99972.47
2022-08-24T07:44:33.866Z,99983.06
2022-08-24T07:46:36.143Z,99968.31
2022-08-24T07:48:37.902Z,99949.66
2022-08-24T07:50:39.565Z,99979.13
2022-08-24T07:52:41.730Z,99980.28
2022-08-24T07:54:43.305Z,99967.03
2022-08-24T07:56:45.045Z,99982.03
2022-08-24T07:58:47.087Z,99975.91
2022-08-24T08:00:49.466Z,99981.50
2022-08-24T08:02:51.203Z,99989.34
2022-08-24T08:04:55.534Z,99988.31
2022-08-24T08:06:57.157Z,99975.66
2022-08-24T08:08:59.055Z,99980.19
2022-08-24T08:11:02.663Z,99979.19
2022-08-24T08:13:05.471Z,99992.91
2022-08-24T08:15:09.531Z,99983.03
2022-08-24T08:17:11.710Z,99984.25
2022-08-24T08:19:13.668Z,99976.44
2022-08-24T08:21:34.246Z,99978.63
2022-08-24T08:23:54.521Z,99981.53
2022-08-24T08:25:58.036Z,99975.69
2022-08-24T08:28:04.365Z,99972.31
2022-08-24T08:30:15.646Z,99983.75
2022-08-24T08:32:17.684Z,99985.44
2022-08-24T08:34:20.064Z,99990.25
2022-08-24T08:36:22.853Z,99991.28
2022-08-24T08:38:24.626Z,99989.56
2022-08-24T08:40:45.096Z,99991.47
2022-08-24T08:43:01.373Z,99979.19
2022-08-24T08:45:17.616Z,99984.91
2022-08-24T08:47:50.148Z,99988.16
2022-08-24T08:50:25.773Z,99985.72
2022-08-24T08:52:55.163Z,99991.22
2022-08-24T08:55:18.275Z,99984.06
2022-08-24T08:57:53.819Z,99987.34
2022-08-24T09:00:07.720Z,99998.03
2022-08-24T09:02:36.427Z,99990.03
2022-08-24T09:04:59.742Z,99979.50
2022-08-24T09:07:39.071Z,99975.44
2022-08-24T09:09:43.560Z,99990.44
2022-08-24T09:11:54.179Z,99988.81
2022-08-24T09:14:04.932Z,99989.38
2022-08-24T09:16:24.958Z,99979.81
2022-08-24T09:18:52.787Z,99988.84
2022-08-24T09:21:09.698Z,99994.56
2022-08-24T09:23:17.232Z,99986.94
2022-08-24T09:25:27.146Z,99981.50
2022-08-24T09:27:34.877Z,99979.53
2022-08-24T09:29:37.637Z,99976.47
2022-08-24T09:31:51.749Z,99987.75
2022-08-24T09:33:56.106Z,99983.94
2022-08-24T09:36:06.589Z,99981.19
2022-08-24T09:38:43.474Z,99969.94
2022-08-24T09:40:45.381Z,99983.63
2022-08-24T09:43:24.426Z,99963.88
2022-08-24T09:45:44.558Z,99972.28
2022-08-24T09:47:52.222Z,99979.75
2022-08-24T09:50:28.772Z,99982.25
2022-08-24T09:53:04.157Z,99972.69
2022-08-24T09:55:09.093Z,99978.97
2022-08-24T09:57:20.608Z,99979.22
2022-08-24T09:59:36.497Z,99975.38
2022-08-24T10:01:54.941Z,99956.97
2022-08-24T10:04:27.938Z,99972.19
2022-08-24T10:06:46.450Z,99964.00
2022-08-24T10:09:00.695Z,99968.84
2022-08-24T10:11:22.166Z,99978.75
2022-08-24T10:13:38.498Z,99967.91
2022-08-24T10:16:00.933Z,99952.28
2022-08-24T10:18:08.625Z,99962.91
2022-08-24T10:20:48.687Z,99951.41
2022-08-24T10:22:58.975Z,99954.97
2022-08-24T10:25:06.383Z,99947.06
2022-08-24T10:27:34.117Z,99954.06
2022-08-24T10:30:06.674Z,99961.13
2022-08-24T10:32:20.020Z,99945.88
2022-08-24T10:34:28.935Z,99944.81
2022-08-24T10:36:46.979Z,99939.09
2022-08-24T10:39:36.413Z,99930.44
2022-08-24T10:42:38.195Z,99932.25
2022-08-24T10:44:47.820Z,99944.47
2022-08-24T10:47:18.426Z,99935.78
2022-08-24T10:49:35.268Z,99940.13
2022-08-24T10:52:03.213Z,99941.25
2022-08-24T10:54:05.277Z,99945.09
2022-08-24T10:56:13.993Z,99933.97
2022-08-24T10:58:40.845Z,99932.56
2022-08-24T11:03:28.256Z,99926.22
2022-08-24T11:05:35.540Z,99922.16
2022-08-24T11:07:52.169Z,99925.78
2022-08-24T11:10:01.880Z,99929.00
2022-08-24T11:12:18.460Z,99922.94
2022-08-24T11:14:27.545Z,99933.31
2022-08-24T11:16:39.154Z,99917.13
2022-08-24T11:19:09.793Z,99938.41
2022-08-24T11:21:20.437Z,99926.41
2022-08-24T11:23:24.839Z,99927.75
2022-08-24T11:25:34.615Z,99921.56
2022-08-24T11:27:41.105Z,99918.66
2022-08-24T11:29:51.895Z,99916.28
2022-08-24T11:31:53.802Z,99908.66
2022-08-24T11:34:36.347Z,99907.88
2022-08-24T11:36:41.751Z,99910.19
2022-08-24T11:38:45.777Z,99906.34
2022-08-24T11:41:03.499Z,99904.28
2022-08-24T11:43:32.014Z,99905.56
2022-08-24T11:45:45.473Z,99915.22
2022-08-24T11:48:16.629Z,99894.28
2022-08-24T11:50:23.898Z,99903.69
2022-08-24T11:52:45.260Z,99918.09
2022-08-24T11:54:56.706Z,99908.59
2022-08-24T11:57:10.737Z,99892.34
2022-08-24T11:59:22.085Z,99898.78
2022-08-24T12:01:35.719Z,99899.09
2022-08-24T12:03:44.509Z,99884.88
2022-08-24T12:06:07.416Z,99885.13
2022-08-24T12:08:27.826Z,99871.50
2022-08-24T12:10:41.601Z,99893.47
2022-08-24T12:12:51.924Z,99890.72
2022-08-24T12:15:05.006Z,99890.69
2022-08-24T12:17:18.895Z,99871.06
2022-08-24T12:19:29.914Z,99868.34
2022-08-24T12:21:36.697Z,99873.63
2022-08-24T12:23:40.694Z,99871.97
2022-08-24T12:26:04.722Z,99864.78
2022-08-24T12:28:07.552Z,99850.28
2022-08-24T12:30:16.495Z,99857.25
2022-08-24T12:32:37.624Z,99863.75
2022-08-24T12:34:58.824Z,99860.94
2022-08-24T12:37:16.193Z,99864.72
2022-08-24T12:39:30.657Z,99852.75
2022-08-24T12:41:38.287Z,99860.34
2022-08-24T12:43:45.019Z,99851.38
2022-08-24T12:45:47.534Z,99865.25
2022-08-24T12:48:02.114Z,99861.56
2022-08-24T12:50:11.537Z,99857.97
2022-08-24T12:52:22.269Z,99854.81
2022-08-24T12:54:57.808Z,99853.00
2022-08-24T12:57:12.482Z,99855.59
2022-08-24T12:59:44.564Z,99847.25
2022-08-24T13:02:16.120Z,99849.38
2022-08-24T13:04:44.594Z,99847.06
2022-08-24T13:06:56.348Z,99854.03
2022-08-24T13:09:35.122Z,99836.31
2022-08-24T13:11:37.607Z,99855.91
2022-08-24T13:13:47.444Z,99830.44
2022-08-24T13:15:49.049Z,99843.53
2022-08-24T13:17:58.846Z,99841.78
2022-08-24T13:20:50.896Z,99847.56
2022-08-24T13:23:04.748Z,99846.03
2022-08-24T13:25:41.481Z,99843.66
2022-08-24T13:27:43.511Z,99841.84
2022-08-24T13:30:17.664Z,99839.84
2022-08-24T13:32:32.310Z,99840.94
2022-08-24T13:34:44.381Z,99831.16
2022-08-24T13:36:52.691Z,99827.78
2022-08-24T13:39:12.342Z,99824.84
2022-08-24T13:41:21.097Z,99811.66
2022-08-24T13:43:35.354Z,99818.19
2022-08-24T13:45:42.847Z,99810.16
2022-08-24T13:47:49.091Z,99801.53
2022-08-24T13:50:01.935Z,99808.91
2022-08-24T13:52:13.684Z,99797.59
2022-08-24T13:54:42.288Z,99798.06
2022-08-24T13:57:20.494Z,99802.72
2022-08-24T13:59:42.083Z,99796.59
2022-08-24T14:01:59.100Z,99796.59
2022-08-24T14:04:07.012Z,99807.13
2022-08-24T14:06:25.776Z,99801.19
2022-08-24T14:08:50.434Z,99812.16
2022-08-24T14:10:54.933Z,99818.91
2022-08-24T14:13:25.861Z,99809.84
2022-08-24T14:15:30.912Z,99811.56
2022-08-24T14:17:55.052Z,99809.06
2022-08-24T14:20:35.266Z,99800.97
2022-08-24T14:22:40.737Z,99812.41
2022-08-24T14:24:56.364Z,99783.97
2022-08-24T14:27:05.206Z,99775.19
2022-08-24T14:29:16.002Z,99804.94
2022-08-24T14:31:21.055Z,99795.03
2022-08-24T14:33:30.645Z,99805.53
2022-08-24T14:35:41.512Z,99796.59
2022-08-24T14:38:28.828Z,99784.31
2022-08-24T14:40:43.707Z,99803.75
2022-08-24T14:42:55.155Z,99798.81
2022-08-24T14:45:07.562Z,99802.78
2022-08-24T14:48:08.357Z,99790.97
2022-08-24T14:50:17.423Z,99799.00
2022-08-24T14:52:53.016Z,99793.88
2022-08-24T14:55:19.773Z,99805.75
2022-08-24T14:57:57.892Z,99802.63
2022-08-24T15:00:20.626Z,99784.47
2022-08-24T15:02:42.767Z,99787.41
2022-08-24T15:04:52.765Z,99787.00
2022-08-24T15:06:59.286Z,99790.38
2022-08-24T15:09:30.331Z,99786.94
2022-08-24T15:11:32.459Z,99792.28
2022-08-24T15:13:46.815Z,99789.81
2022-08-24T15:16:03.374Z,99783.09
2022-08-24T15:18:33.641Z,99786.94
2022-08-24T15:20:46.877Z,99794.84
2022-08-24T15:23:04.860Z,99790.25
2022-08-24T15:25:22.742Z,99783.34
2022-08-24T15:27:45.565Z,99782.75
2022-08-24T15:29:53.642Z,99773.94
2022-08-24T15:32:01.130Z,99775.56
2022-08-24T15:34:05.404Z,99773.75
2022-08-24T15:36:13.410Z,99772.31
2022-08-24T15:38:30.147Z,99778.50
2022-08-24T15:40:33.235Z,99775.06
2022-08-24T15:42:36.876Z,99769.84
2022-08-24T15:44:41.204Z,99776.22
2022-08-24T15:47:14.094Z,99773.28
2022-08-24T15:49:28.658Z,99770.16
2022-08-24T15:51:42.305Z,99761.41
2022-08-24T15:53:45.203Z,99759.34
2022-08-24T15:55:48.245Z,99769.69
2022-08-24T15:57:56.385Z,99777.31
2022-08-24T16:00:38.857Z,99787.00
2022-08-24T16:02:43.597Z,99787.06
2022-08-24T16:04:48.610Z,99787.09
2022-08-24T16:06:50.279Z,99788.53
2022-08-24T16:09:08.343Z,99775.41
2022-08-24T16:11:28.004Z,99775.47
2022-08-24T16:13:32.248Z,99762.44
2022-08-24T16:15:34.118Z,99758.13
2022-08-24T16:17:51.129Z,99769.91
2022-08-24T16:19:57.291Z,99766.34
2022-08-24T16:22:04.403Z,99764.44
2022-08-24T16:24:13.558Z,99776.56
2022-08-24T16:26:21.233Z,99776.97
2022-08-24T16:28:22.777Z,99771.97
2022-08-24T16:30:39.286Z,99783.22
2022-08-24T16:32:57.127Z,99770.13
2022-08-24T16:35:01.696Z,99777.53
2022-08-24T16:37:05.016Z,99774.66
2022-08-24T16:39:06.652Z,99784.31
2022-08-24T16:41:11.247Z,99769.19
2022-08-24T16:43:13.448Z,99769.16
2022-08-24T16:45:21.012Z,99773.28
2022-08-24T16:47:23.773Z,99771.50
2022-08-24T16:49:25.470Z,99759.72
2022-08-24T16:51:27.135Z,99765.09
2022-08-24T16:53:29.051Z,99764.19
2022-08-24T16:55:30.725Z,99761.69
2022-08-24T16:57:37.647Z,99760.72
2022-08-24T16:59:41.886Z,99765.81
2022-08-24T17:01:43.567Z,99765.34
2022-08-24T17:03:45.483Z,99772.84
2022-08-24T17:05:47.095Z,99771.19
2022-08-24T17:07:50.218Z,99770.47
2022-08-24T17:09:52.785Z,99767.81
2022-08-24T17:11:54.561Z,99761.44
2022-08-24T17:13:56.406Z,99774.81
2022-08-24T17:15:59.614Z,99776.06
2022-08-24T17:18:06.254Z,99771.00
2022-08-24T17:20:12.010Z,99781.56
2022-08-24T17:22:16.420Z,99775.22
2022-08-24T17:24:20.873Z,99773.94
2022-08-24T17:26:22.577Z,99777.69
2022-08-24T17:28:24.649Z,99781.44
2022-08-24T17:30:26.943Z,99781.94
2022-08-24T17:32:31.900Z,99780.53
2022-08-24T17:34:34.970Z,99785.63
2022-08-24T17:36:36.661Z,99784.44
2022-08-24T17:38:46.057Z,99781.78
2022-08-24T17:40:47.663Z,99783.72
2022-08-24T17:42:51.528Z,99795.94
2022-08-24T17:44:54.116Z,99787.22
2022-08-24T17:46:59.378Z,99786.66
2022-08-24T17:49:02.488Z,99785.47
2022-08-24T17:51:04.151Z,99782.22
2022-08-24T17:53:05.810Z,99794.84
2022-08-24T17:55:10.352Z,99798.69
2022-08-24T17:57:15.112Z,99791.25
2022-08-24T17:59:24.805Z,99788.34
2022-08-24T18:01:26.943Z,99789.44
2022-08-24T18:03:28.697Z,99790.34
2022-08-24T18:05:33.120Z,99789.56
2022-08-24T18:07:52.669Z,99795.28
2022-08-24T18:10:00.424Z,99801.22
2022-08-24T18:12:04.315Z,99808.19
2022-08-24T18:14:05.906Z,99805.53
2022-08-24T18:16:13.673Z,99812.94
2022-08-24T18:18:15.673Z,99799.56
2022-08-24T18:20:33.023Z,99808.13
2022-08-24T18:22:34.653Z,99808.22
2022-08-24T18:24:36.745Z,99794.00
2022-08-24T18:26:39.852Z,99800.97
2022-08-24T18:28:49.641Z,99813.13
2022-08-24T18:30:51.744Z,99809.94
2022-08-24T18:32:53.710Z,99811.00
2022-08-24T18:34:55.384Z,99814.25
2022-08-24T18:36:57.005Z,99814.66
2022-08-24T18:38:58.680Z,99814.13
2022-08-24T18:41:01.863Z,99823.59
2022-08-24T18:43:04.466Z,99821.78
2022-08-24T18:45:08.953Z,99816.88
2022-08-24T18:47:10.674Z,99827.97
2022-08-24T18:49:12.457Z,99825.84
2022-08-24T18:51:18.816Z,99828.22
2022-08-24T18:53:24.406Z,99830.34
2022-08-24T18:55:26.815Z,99826.25
2022-08-24T18:57:28.833Z,99830.28
2022-08-24T18:59:30.542Z,99831.09
2022-08-24T19:01:56.933Z,99822.47
2022-08-24T19:03:59.012Z,99828.47
2022-08-24T19:06:00.970Z,99826.31
2022-08-24T19:08:04.228Z,99813.44
2022-08-24T19:10:10.353Z,99815.00
2022-08-24T19:12:12.268Z,99820.41
2022-08-24T19:14:14.814Z,99828.97
2022-08-24T19:16:16.443Z,99824.47
2022-08-24T19:18:20.599Z,99820.19
2022-08-24T19:20:22.316Z,99825.69
2022-08-24T19:22:25.130Z,99825.91
2022-08-24T19:24:28.106Z,99820.94
2022-08-24T19:26:30.805Z,99818.72
2022-08-24T19:28:32.717Z,99821.94
2022-08-24T19:30:35.644Z,99807.13
2022-08-24T19:32:39.891Z,99813.03
2022-08-24T19:34:41.515Z,99810.19
2022-08-24T19:36:44.313Z,99809.28
2022-08-24T19:38:47.576Z,99793.19
2022-08-24T19:40:49.219Z,99806.50
2022-08-24T19:42:54.434Z,99799.59
2022-08-24T19:45:16.500Z,99815.25
2022-08-24T19:47:18.204Z,99809.53
2022-08-24T19:49:20.275Z,99807.44
2022-08-24T19:51:21.888Z,99807.09
2022-08-24T19:53:25.558Z,99808.22
2022-08-24T19:55:30.033Z,99814.59
2022-08-24T19:57:44.129Z,99799.00
2022-08-24T19:59:45.832Z,99808.75
2022-08-24T20:01:47.622Z,99819.16
2022-08-24T20:03:50.365Z,99812.47
2022-08-24T20:05:52.181Z,99808.22
2022-08-24T20:07:54.716Z,99804.94
2022-08-24T20:09:56.346Z,99811.41
2022-08-24T20:11:57.910Z,99818.72
2022-08-24T20:13:59.709Z,99826.91
2022-08-24T20:16:01.691Z,99825.84
2022-08-24T20:18:03.581Z,99823.94
2022-08-24T20:20:07.910Z,99822.88
2022-08-24T20:22:13.546Z,99833.78
2022-08-24T20:24:15.513Z,99818.25
2022-08-24T20:26:17.149Z,99818.00
2022-08-24T20:28:29.256Z,99808.09
2022-08-24T20:30:31.864Z,99820.69
2022-08-24T20:32:33.952Z,99822.09
2022-08-24T20:34:35.547Z,99822.28
2022-08-24T20:36:41.229Z,99826.09
2022-08-24T20:38:42.942Z,99835.31
2022-08-24T20:40:45.823Z,99835.41
2022-08-24T20:42:47.786Z,99837.78
2022-08-24T20:44:50.352Z,99845.03
2022-08-24T20:46:52.127Z,99837.91
2022-08-24T20:48:55.506Z,99837.84
2022-08-24T20:50:57.834Z,99836.28
2022-08-24T20:52:59.511Z,99832.03
2022-08-24T20:55:04.863Z,99821.94
2022-08-24T20:57:08.193Z,99823.31
2022-08-24T20:59:11.455Z,99813.91
2022-08-24T21:01:13.280Z,99817.97
2022-08-24T21:03:16.225Z,99810.38
2022-08-24T21:05:17.979Z,99812.81
2022-08-24T21:07:19.568Z,99812.66
2022-08-24T21:09:21.369Z,99814.81
2022-08-24T21:11:23.091Z,99799.88
2022-08-24T21:13:24.782Z,99808.84
2022-08-24T21:15:26.956Z,99802.19
2022-08-24T21:17:28.710Z,99814.78
2022-08-24T21:19:31.321Z,99807.38
2022-08-24T21:21:33.689Z,99809.34
2022-08-24T21:23:35.639Z,99804.41
2022-08-24T21:25:38.084Z,99804.56
2022-08-24T21:27:42.925Z,99810.59
2022-08-24T21:29:44.545Z,99818.78
2022-08-24T21:32:06.101Z,99807.72
2022-08-24T21:34:27.988Z,99817.59
2022-08-24T21:36:31.933Z,99815.75
2022-08-24T21:38:33.624Z,99827.03
2022-08-24T21:40:36.289Z,99819.25
2022-08-24T21:42:37.954Z,99819.97
2022-08-24T21:44:39.712Z,99822.59
2022-08-24T21:46:41.594Z,99818.09
2022-08-24T21:48:43.358Z,99822.72
2022-08-24T21:50:46.064Z,99822.84
2022-08-24T21:52:49.048Z,99815.59
2022-08-24T21:54:56.318Z,99817.09
2022-08-24T21:56:58.103Z,99813.63
2022-08-24T21:59:00.533Z,99814.44
2022-08-24T22:01:02.234Z,99814.22
2022-08-24T22:03:05.395Z,99814.91
2022-08-24T22:05:07.753Z,99826.34
2022-08-24T22:07:09.414Z,99829.19
2022-08-24T22:09:11.068Z,99839.31
2022-08-24T22:11:15.977Z,99837.38
2022-08-24T22:13:17.567Z,99841.03
2022-08-24T22:15:23.234Z,99847.75
2022-08-24T22:17:25.223Z,99841.88
2022-08-24T22:19:26.865Z,99852.22
2022-08-24T22:21:31.432Z,99856.38
2022-08-24T22:23:38.355Z,99848.22
2022-08-24T22:25:40.029Z,99851.59
2022-08-24T22:27:46.047Z,99847.34
2022-08-24T22:29:52.416Z,99849.69
2022-08-24T22:31:54.946Z,99844.78
2022-08-24T22:33:58.391Z,99847.25
2022-08-24T22:36:00.064Z,99839.75
2022-08-24T22:38:02.034Z,99848.19
2022-08-24T22:40:05.641Z,99832.34
2022-08-24T22:42:07.555Z,99836.13
2022-08-24T22:44:21.603Z,99838.81
2022-08-24T22:46:23.711Z,99838.66
2022-08-24T22:48:26.700Z,99838.56
2022-08-24T22:50:28.895Z,99831.84
2022-08-24T22:52:30.873Z,99833.25
2022-08-24T22:54:34.451Z,99834.63
2022-08-24T22:56:40.532Z,99824.59
2022-08-24T22:58:42.172Z,99820.59
2022-08-24T23:00:43.791Z,99819.75
2022-08-24T23:02:45.411Z,99822.56
2022-08-24T23:04:49.848Z,99817.66
2022-08-24T23:06:52.742Z,99815.91
2022-08-24T23:08:54.573Z,99822.50
2022-08-24T23:10:57.330Z,99803.16
2022-08-24T23:13:00.230Z,99808.38
2022-08-24T23:15:01.867Z,99799.22
2022-08-24T23:17:04.418Z,99805.63
2022-08-24T23:19:25.991Z,99816.38
2022-08-24T23:21:27.806Z,99827.06
2022-08-24T23:23:29.409Z,99817.97
2022-08-24T23:25:31.017Z,99818.06
2022-08-24T23:27:37.134Z,99810.19
2022-08-24T23:29:40.711Z,99815.78
2022-08-24T23:31:43.096Z,99814.44
2022-08-24T23:33:45.266Z,99808.91
2022-08-24T23:35:46.832Z,99809.91
2022-08-24T23:37:48.491Z,99806.13
2022-08-24T23:39:50.227Z,99808.63
2022-08-24T23:41:53.496Z,99796.88
2022-08-24T23:43:55.620Z,99803.19
2022-08-24T23:45:57.231Z,99797.44
2022-08-24T23:47:59.839Z,99798.84
2022-08-24T23:50:01.890Z,99793.34
2022-08-24T23:52:03.803Z,99798.28
2022-08-24T23:54:07.405Z,99790.09
2022-08-24T23:56:13.431Z,99797.13
2022-08-24T23:58:15.476Z,99787.09
